createdAt,value
2017-10-31T00:00:09.559Z,6.72
2017-10-31T00:02:53.947Z,6.66
2017-10-31T00:05:26.180Z,6.67
2017-10-31T00:08:00.609Z,6.71
2017-10-31T00:10:33.171Z,6.70
2017-10-31T00:13:05.299Z,6.71
2017-10-31T00:15:36.546Z,6.70
2017-10-31T00:18:08.218Z,6.68
2017-10-31T00:20:39.224Z,6.62
2017-10-31T00:23:10.244Z,6.67
2017-10-31T00:25:41.701Z,6.62
2017-10-31T00:28:12.887Z,6.72
2017-10-31T00:30:43.776Z,6.61
2017-10-31T00:33:14.986Z,6.68
2017-10-31T00:35:49.235Z,6.63
2017-10-31T00:38:21.666Z,6.62
2017-10-31T00:40:54.226Z,6.56
2017-10-31T00:43:25.384Z,6.57
2017-10-31T00:45:56.316Z,6.65
2017-10-31T00:48:30.691Z,6.63
2017-10-31T00:51:01.369Z,6.55
2017-10-31T00:53:32.295Z,6.61
2017-10-31T00:56:03.075Z,6.69
2017-10-31T00:58:34.118Z,6.67
2017-10-31T01:01:04.721Z,6.70
2017-10-31T01:03:36.205Z,6.67
2017-10-31T01:06:06.884Z,6.65
2017-10-31T01:08:37.680Z,6.68
2017-10-31T01:11:08.184Z,6.73
2017-10-31T01:13:39.259Z,6.64
2017-10-31T01:16:10.140Z,6.64
2017-10-31T01:18:41.132Z,6.68
2017-10-31T01:21:12.141Z,6.74
2017-10-31T01:23:43.019Z,6.71
2017-10-31T01:26:13.891Z,6.73
2017-10-31T01:28:47.852Z,6.67
2017-10-31T01:31:19.523Z,6.66
2017-10-31T01:33:53.653Z,6.67
2017-10-31T01:36:30.897Z,6.66
2017-10-31T01:39:03.126Z,6.65
2017-10-31T01:41:34.883Z,6.67
2017-10-31T01:44:08.125Z,6.60
2017-10-31T01:46:38.797Z,6.61
2017-10-31T01:49:09.760Z,6.62
2017-10-31T01:51:40.915Z,6.59
2017-10-31T01:54:11.917Z,6.60
2017-10-31T01:56:42.721Z,6.62
2017-10-31T01:59:13.564Z,6.62
2017-10-31T02:01:55.056Z,6.61
2017-10-31T02:04:26.677Z,6.58
2017-10-31T02:06:57.189Z,6.69
2017-10-31T02:09:28.287Z,6.65
2017-10-31T02:12:01.482Z,6.67
2017-10-31T02:14:32.915Z,6.64
2017-10-31T02:17:03.957Z,6.63
2017-10-31T02:19:36.261Z,6.67
2017-10-31T02:22:07.184Z,6.60
2017-10-31T02:24:38.811Z,6.62
2017-10-31T02:27:09.744Z,6.55
2017-10-31T02:29:49.942Z,6.65
2017-10-31T02:32:21.022Z,6.53
2017-10-31T02:34:53.135Z,6.49
2017-10-31T02:37:24.057Z,6.55
2017-10-31T02:39:54.760Z,6.50
2017-10-31T02:42:26.073Z,6.42
2017-10-31T02:44:57.295Z,6.47
2017-10-31T02:47:28.175Z,6.46
2017-10-31T02:49:59.172Z,6.46
2017-10-31T02:52:33.051Z,6.47
2017-10-31T02:55:04.842Z,6.49
2017-10-31T02:57:37.908Z,6.44
2017-10-31T03:00:11.012Z,6.49
2017-10-31T03:02:44.394Z,6.44
2017-10-31T03:05:28.455Z,6.45
2017-10-31T03:07:59.285Z,6.47
2017-10-31T03:10:30.240Z,6.38
2017-10-31T03:13:01.699Z,6.34
2017-10-31T03:15:33.203Z,6.38
2017-10-31T03:18:07.065Z,6.36
2017-10-31T03:20:39.843Z,6.33
2017-10-31T03:23:11.772Z,6.23
2017-10-31T03:25:43.321Z,6.16
2017-10-31T03:28:14.727Z,6.27
2017-10-31T03:33:22.534Z,6.14
2017-10-31T03:35:53.331Z,6.16
2017-10-31T03:38:24.299Z,6.20
2017-10-31T03:40:55.069Z,6.18
2017-10-31T03:43:26.122Z,6.22
2017-10-31T03:45:56.950Z,6.22
2017-10-31T03:48:27.674Z,6.24
2017-10-31T03:50:58.830Z,6.17
2017-10-31T03:53:30.871Z,6.18
2017-10-31T03:56:02.363Z,6.18
2017-10-31T03:58:33.244Z,6.12
2017-10-31T04:01:03.955Z,6.05
2017-10-31T04:03:34.634Z,6.05
2017-10-31T04:06:05.614Z,6.08
2017-10-31T04:08:36.405Z,5.97
2017-10-31T04:11:07.315Z,6.03
2017-10-31T04:13:38.317Z,5.95
2017-10-31T04:16:11.587Z,5.97
2017-10-31T04:18:42.409Z,5.99
2017-10-31T04:21:13.584Z,5.99
2017-10-31T04:23:44.489Z,5.96
2017-10-31T04:26:16.035Z,6.01
2017-10-31T04:28:49.789Z,5.98
2017-10-31T04:31:21.433Z,5.98
2017-10-31T04:33:53.502Z,5.90
2017-10-31T04:36:24.163Z,5.82
2017-10-31T04:38:54.709Z,5.75
2017-10-31T04:41:27.357Z,5.77
2017-10-31T04:43:59.668Z,5.83
2017-10-31T04:46:30.434Z,5.81
2017-10-31T04:49:01.382Z,5.72
2017-10-31T04:51:32.297Z,5.66
2017-10-31T04:54:03.303Z,5.64
2017-10-31T04:56:34.307Z,5.64
2017-10-31T04:59:05.344Z,5.62
2017-10-31T05:01:35.895Z,5.56
2017-10-31T05:04:07.026Z,5.57
2017-10-31T05:06:37.827Z,5.58
2017-10-31T05:09:08.685Z,5.53
2017-10-31T05:11:41.698Z,5.44
2017-10-31T05:14:12.509Z,5.48
2017-10-31T05:16:43.626Z,5.56
2017-10-31T05:19:14.465Z,5.63
2017-10-31T05:21:49.983Z,5.69
2017-10-31T05:24:21.397Z,5.71
2017-10-31T05:26:53.291Z,5.67
2017-10-31T05:29:26.183Z,5.71
2017-10-31T05:31:56.822Z,5.69
2017-10-31T05:34:27.585Z,5.70
2017-10-31T05:36:58.986Z,5.73
2017-10-31T05:39:30.167Z,5.67
2017-10-31T05:42:01.327Z,5.63
2017-10-31T05:44:34.247Z,5.64
2017-10-31T05:47:06.580Z,5.70
2017-10-31T05:49:37.569Z,5.64
2017-10-31T05:52:11.321Z,5.59
2017-10-31T05:54:52.741Z,5.64
2017-10-31T05:57:27.371Z,5.64
2017-10-31T06:00:06.302Z,5.71
2017-10-31T06:02:37.900Z,5.67
2017-10-31T06:05:10.185Z,5.65
2017-10-31T06:07:44.769Z,5.74
2017-10-31T06:10:18.023Z,5.70
2017-10-31T06:12:57.511Z,5.72
2017-10-31T06:15:42.630Z,5.89
2017-10-31T06:18:14.497Z,5.89
2017-10-31T06:21:02.105Z,5.81
2017-10-31T06:25:40.411Z,5.86
2017-10-31T06:30:22.610Z,5.89
2017-10-31T06:32:54.690Z,5.92
2017-10-31T06:35:25.673Z,5.88
2017-10-31T06:37:57.532Z,5.92
2017-10-31T06:40:30.205Z,5.97
2017-10-31T06:43:00.993Z,5.96
2017-10-31T06:45:31.964Z,6.00
2017-10-31T06:48:03.221Z,6.07
2017-10-31T06:50:35.322Z,6.07
2017-10-31T06:53:06.454Z,6.06
2017-10-31T06:55:38.352Z,6.10
2017-10-31T06:58:10.354Z,6.05
2017-10-31T07:00:42.172Z,6.13
2017-10-31T07:03:12.962Z,6.18
2017-10-31T07:05:49.080Z,6.13
2017-10-31T07:08:23.290Z,6.19
2017-10-31T07:10:55.421Z,6.19
2017-10-31T07:13:26.295Z,6.14
2017-10-31T07:16:00.441Z,6.14
2017-10-31T07:18:33.268Z,6.17
2017-10-31T07:21:05.299Z,6.15
2017-10-31T07:23:38.056Z,6.23
2017-10-31T07:26:10.718Z,6.27
2017-10-31T07:28:43.692Z,6.31
2017-10-31T07:31:14.914Z,6.44
2017-10-31T07:33:51.689Z,6.48
2017-10-31T07:36:22.942Z,6.41
2017-10-31T07:38:54.100Z,6.37
2017-10-31T07:41:26.735Z,6.41
2017-10-31T07:44:03.202Z,6.31
2017-10-31T07:49:12.862Z,6.31
2017-10-31T07:51:51.025Z,6.37
2017-10-31T07:54:25.656Z,6.58
2017-10-31T07:56:57.528Z,6.66
2017-10-31T07:59:42.475Z,6.73
2017-10-31T08:02:24.567Z,6.93
2017-10-31T08:04:57.661Z,6.80
2017-10-31T08:07:29.215Z,6.85
2017-10-31T08:10:00.664Z,6.83
2017-10-31T08:12:33.830Z,6.99
2017-10-31T08:15:05.726Z,7.09
2017-10-31T08:17:43.697Z,7.26
2017-10-31T08:20:17.192Z,7.36
2017-10-31T08:22:53.115Z,7.35
2017-10-31T08:25:25.735Z,7.40
2017-10-31T08:27:58.865Z,7.35
2017-10-31T08:30:31.803Z,7.34
2017-10-31T08:33:04.994Z,7.47
2017-10-31T08:35:37.271Z,7.14
2017-10-31T08:38:10.366Z,7.21
2017-10-31T08:40:49.997Z,7.44
2017-10-31T08:43:23.263Z,7.58
2017-10-31T08:46:11.930Z,7.44
2017-10-31T08:48:49.403Z,7.71
2017-10-31T08:51:23.415Z,7.70
2017-10-31T08:53:55.626Z,8.01
2017-10-31T08:56:28.651Z,7.96
2017-10-31T08:59:00.341Z,7.73
2017-10-31T09:01:33.374Z,7.83
2017-10-31T09:04:05.188Z,7.73
2017-10-31T09:06:37.502Z,7.78
2017-10-31T09:09:12.640Z,7.90
2017-10-31T09:11:49.593Z,7.89
2017-10-31T09:14:22.517Z,7.90
2017-10-31T09:16:57.304Z,7.98
2017-10-31T09:19:31.244Z,7.93
2017-10-31T09:22:02.731Z,7.95
2017-10-31T09:24:37.005Z,8.02
2017-10-31T09:27:13.084Z,8.13
2017-10-31T09:29:50.150Z,7.90
2017-10-31T09:32:23.781Z,7.89
2017-10-31T09:34:58.488Z,8.16
2017-10-31T09:37:31.891Z,8.25
2017-10-31T09:40:04.089Z,8.49
2017-10-31T09:42:37.352Z,8.57
2017-10-31T09:45:11.156Z,8.67
2017-10-31T09:47:49.111Z,8.75
2017-10-31T09:50:24.230Z,8.66
2017-10-31T09:52:57.749Z,8.50
2017-10-31T09:55:30.796Z,8.41
2017-10-31T09:58:03.740Z,8.64
2017-10-31T10:00:36.875Z,9.00
2017-10-31T10:03:10.384Z,8.90
2017-10-31T10:05:42.904Z,8.95
2017-10-31T10:08:15.421Z,8.84
2017-10-31T10:10:51.049Z,8.62
2017-10-31T10:13:24.255Z,8.93
2017-10-31T10:15:57.666Z,8.80
2017-10-31T10:18:31.053Z,8.89
2017-10-31T10:21:04.258Z,8.69
2017-10-31T10:23:35.493Z,8.63
2017-10-31T10:26:09.026Z,8.58
2017-10-31T10:28:40.857Z,8.41
2017-10-31T10:31:15.272Z,8.53
2017-10-31T10:33:47.181Z,8.34
2017-10-31T10:36:19.623Z,8.51
2017-10-31T10:38:53.323Z,8.61
2017-10-31T10:41:26.846Z,9.17
2017-10-31T10:43:59.505Z,9.75
2017-10-31T10:46:32.577Z,10.24
2017-10-31T10:49:05.561Z,9.94
2017-10-31T10:51:37.635Z,9.78
2017-10-31T10:54:08.926Z,9.77
2017-10-31T10:56:39.816Z,9.41
2017-10-31T10:59:12.192Z,9.55
2017-10-31T11:01:44.877Z,9.18
2017-10-31T11:04:16.568Z,9.06
2017-10-31T11:06:49.057Z,9.16
2017-10-31T11:09:20.517Z,9.07
2017-10-31T11:11:55.777Z,9.07
2017-10-31T11:14:29.393Z,9.03
2017-10-31T11:17:00.445Z,9.13
2017-10-31T11:19:32.323Z,9.05
2017-10-31T11:22:04.063Z,9.21
2017-10-31T11:24:34.847Z,9.42
2017-10-31T11:27:05.188Z,9.52
2017-10-31T11:29:36.314Z,9.48
2017-10-31T11:32:09.068Z,9.48
2017-10-31T11:34:40.483Z,9.39
2017-10-31T11:37:11.157Z,9.39
2017-10-31T11:39:42.776Z,9.42
2017-10-31T11:42:14.448Z,9.40
2017-10-31T11:44:48.895Z,9.36
2017-10-31T11:47:21.134Z,9.22
2017-10-31T11:49:53.473Z,9.28
2017-10-31T11:52:24.206Z,9.06
2017-10-31T11:54:59.075Z,9.02
2017-10-31T11:57:30.632Z,9.14
2017-10-31T12:00:02.131Z,9.17
2017-10-31T12:02:33.422Z,9.24
2017-10-31T12:05:05.951Z,9.05
2017-10-31T12:07:38.038Z,9.13
2017-10-31T12:10:14.836Z,9.35
2017-10-31T12:12:50.351Z,9.19
2017-10-31T12:15:21.820Z,9.10
2017-10-31T12:17:55.185Z,9.39
2017-10-31T12:20:31.692Z,9.35
2017-10-31T12:23:03.177Z,9.27
2017-10-31T12:25:35.899Z,9.31
2017-10-31T12:28:11.847Z,9.48
2017-10-31T12:30:43.569Z,9.47
2017-10-31T12:33:19.100Z,9.29
2017-10-31T12:35:53.568Z,9.31
2017-10-31T12:38:25.295Z,9.24
2017-10-31T12:40:56.416Z,9.23
2017-10-31T12:43:27.604Z,9.32
2017-10-31T12:46:00.266Z,9.22
2017-10-31T12:48:31.824Z,9.36
2017-10-31T12:51:04.443Z,9.40
2017-10-31T12:53:35.629Z,9.53
2017-10-31T12:56:10.048Z,9.31
2017-10-31T12:58:40.963Z,9.36
2017-10-31T13:01:17.209Z,9.29
2017-10-31T13:03:53.640Z,9.36
2017-10-31T13:06:26.053Z,9.16
2017-10-31T13:08:57.544Z,9.29
2017-10-31T13:11:30.090Z,9.06
2017-10-31T13:14:02.011Z,8.98
2017-10-31T13:16:33.263Z,9.10
2017-10-31T13:19:06.023Z,9.26
2017-10-31T13:21:38.525Z,9.23
2017-10-31T13:24:09.396Z,9.07
2017-10-31T13:26:43.553Z,9.29
2017-10-31T13:29:25.297Z,9.27
2017-10-31T13:31:58.068Z,9.41
2017-10-31T13:34:34.497Z,9.55
2017-10-31T13:37:18.471Z,9.65
2017-10-31T13:40:02.955Z,9.50
2017-10-31T13:42:40.069Z,9.43
2017-10-31T13:45:11.777Z,9.41
2017-10-31T13:47:44.219Z,9.36
2017-10-31T13:50:16.404Z,9.23
2017-10-31T13:52:50.670Z,9.13
2017-10-31T13:55:30.004Z,9.19
2017-10-31T13:58:01.424Z,9.21
2017-10-31T14:00:36.236Z,9.18
2017-10-31T14:03:11.890Z,9.16
2017-10-31T14:05:49.431Z,9.15
2017-10-31T14:08:23.555Z,9.12
2017-10-31T14:11:00.081Z,9.25
2017-10-31T14:13:32.581Z,9.26
2017-10-31T14:16:06.861Z,9.27
2017-10-31T14:18:42.811Z,9.27
2017-10-31T14:21:24.061Z,9.42
2017-10-31T14:23:56.437Z,9.19
2017-10-31T14:26:28.295Z,9.13
2017-10-31T14:29:01.505Z,9.12
2017-10-31T14:31:36.486Z,9.02
2017-10-31T14:34:15.500Z,9.01
2017-10-31T14:36:55.392Z,9.23
2017-10-31T14:39:29.028Z,9.13
2017-10-31T14:42:06.319Z,9.10
2017-10-31T14:44:41.022Z,9.09
2017-10-31T14:47:12.465Z,9.07
2017-10-31T14:49:43.438Z,9.07
2017-10-31T14:52:15.664Z,9.02
2017-10-31T14:58:27.232Z,9.12
2017-10-31T15:01:00.442Z,9.10
2017-10-31T15:03:35.124Z,9.13
2017-10-31T15:06:09.007Z,9.09
2017-10-31T15:08:41.315Z,9.14
2017-10-31T15:14:14.575Z,8.97
2017-10-31T15:16:57.928Z,8.94
2017-10-31T15:22:38.509Z,9.03
2017-10-31T15:25:12.731Z,8.96
2017-10-31T15:27:46.914Z,8.93
2017-10-31T15:30:19.492Z,8.88
2017-10-31T15:32:56.034Z,8.86
2017-10-31T15:35:38.180Z,8.93
2017-10-31T15:38:38.385Z,8.89
2017-10-31T15:41:31.115Z,8.87
2017-10-31T15:44:03.732Z,8.88
2017-10-31T15:46:39.338Z,8.90
2017-10-31T15:49:11.542Z,8.79
2017-10-31T15:51:50.273Z,8.84
2017-10-31T15:54:27.181Z,8.83
2017-10-31T15:57:02.505Z,8.83
2017-10-31T15:59:35.989Z,8.79
2017-10-31T16:02:17.677Z,8.79
2017-10-31T16:04:52.932Z,8.79
2017-10-31T16:07:30.930Z,8.74
2017-10-31T16:19:33.013Z,8.60
2017-10-31T16:22:10.674Z,8.62
2017-10-31T16:24:51.946Z,8.69
2017-10-31T16:27:27.592Z,8.68
2017-10-31T16:30:00.900Z,8.64
2017-10-31T16:33:08.944Z,8.60
2017-10-31T16:35:52.869Z,8.64
2017-10-31T16:41:16.449Z,8.61
2017-10-31T16:43:55.688Z,8.57
2017-10-31T16:46:27.605Z,8.59
2017-10-31T16:49:04.200Z,8.50
2017-10-31T16:51:41.402Z,8.53
2017-10-31T16:54:17.488Z,8.58
2017-10-31T16:59:42.073Z,8.53
2017-10-31T17:02:25.315Z,8.54
2017-10-31T17:07:44.828Z,8.57
2017-10-31T17:16:14.549Z,8.49
2017-10-31T17:18:51.726Z,8.54
2017-10-31T17:21:42.827Z,8.46
2017-10-31T17:24:58.127Z,8.50
2017-10-31T17:27:35.843Z,8.51
2017-10-31T17:35:49.572Z,8.45
2017-10-31T17:38:50.784Z,8.49
2017-10-31T17:41:23.707Z,8.51
2017-10-31T17:50:00.625Z,8.43
2017-10-31T17:59:28.700Z,8.54
2017-10-31T18:02:12.260Z,8.43
2017-10-31T18:04:52.221Z,8.42
2017-10-31T18:07:29.184Z,8.46
2017-10-31T18:10:36.320Z,8.42
2017-10-31T18:13:37.081Z,8.41
2017-10-31T18:19:24.563Z,8.35
2017-10-31T18:21:58.022Z,8.36
2017-10-31T18:24:30.036Z,8.33
2017-10-31T18:27:01.081Z,8.35
2017-10-31T18:29:32.857Z,8.33
2017-10-31T18:32:04.837Z,8.34
2017-10-31T18:34:41.117Z,8.33
2017-10-31T18:37:17.518Z,8.35
2017-10-31T18:39:58.280Z,8.31
2017-10-31T18:45:30.951Z,8.33
2017-10-31T18:48:04.126Z,8.31
2017-10-31T18:50:36.535Z,8.35
2017-10-31T18:53:09.083Z,8.36
2017-10-31T18:58:22.206Z,8.33
2017-10-31T19:00:58.624Z,8.30
2017-10-31T19:03:35.668Z,8.28
2017-10-31T19:06:13.835Z,8.28
2017-10-31T19:08:46.297Z,8.28
2017-10-31T19:11:21.273Z,8.27
2017-10-31T19:13:57.711Z,8.24
2017-10-31T19:16:31.730Z,8.26
2017-10-31T19:19:11.171Z,8.25
2017-10-31T19:21:43.611Z,8.23
2017-10-31T19:24:20.511Z,8.25
2017-10-31T19:26:56.496Z,8.22
2017-10-31T19:29:36.854Z,8.25
2017-10-31T19:32:14.328Z,8.21
2017-10-31T19:34:50.350Z,8.19
2017-10-31T19:37:31.289Z,8.18
2017-10-31T20:25:32.456Z,8.22
2017-10-31T20:28:08.131Z,8.18
2017-10-31T20:30:43.470Z,8.20
2017-10-31T20:35:56.652Z,8.18
2017-10-31T20:38:29.643Z,8.19
2017-10-31T20:41:03.324Z,8.21
2017-10-31T20:43:52.014Z,8.19
2017-10-31T20:46:25.819Z,8.22
2017-10-31T20:49:00.756Z,8.21
2017-10-31T20:51:36.858Z,8.22
2017-10-31T20:54:07.808Z,8.25
2017-10-31T20:56:40.485Z,8.21
2017-10-31T20:59:19.178Z,8.24
2017-10-31T21:01:51.413Z,8.25
2017-10-31T21:04:27.130Z,8.24
2017-10-31T21:07:01.422Z,8.26
2017-10-31T21:09:33.493Z,8.24
2017-10-31T21:12:06.887Z,8.23
2017-10-31T21:14:41.950Z,8.30
2017-10-31T21:17:14.433Z,8.29
2017-10-31T21:19:50.826Z,8.30
2017-10-31T21:22:23.487Z,8.29
2017-10-31T21:24:54.865Z,8.31
2017-10-31T21:27:31.202Z,8.32
2017-10-31T21:30:10.082Z,8.35
2017-10-31T21:35:42.370Z,8.33
2017-10-31T21:38:13.951Z,8.32
2017-10-31T21:40:46.054Z,8.34
2017-10-31T21:43:17.251Z,8.35
2017-10-31T21:45:48.350Z,8.34
2017-10-31T21:48:21.151Z,8.35
2017-10-31T21:50:53.978Z,8.35
2017-10-31T21:53:25.950Z,8.33
2017-10-31T21:55:57.582Z,8.39
2017-10-31T21:58:29.351Z,8.37
2017-10-31T22:01:00.968Z,8.36
2017-10-31T22:03:32.053Z,8.38
2017-10-31T22:06:03.761Z,8.35
2017-10-31T22:08:34.881Z,8.40
2017-10-31T22:11:09.956Z,8.38
2017-10-31T22:13:44.420Z,8.34
2017-10-31T22:16:16.127Z,8.35
2017-10-31T22:18:58.124Z,8.35
2017-10-31T22:21:29.575Z,8.37
2017-10-31T22:24:02.126Z,8.37
2017-10-31T22:26:33.328Z,8.33
2017-10-31T22:29:04.660Z,8.38
2017-10-31T22:31:36.005Z,8.34
2017-10-31T22:34:10.691Z,8.38
2017-10-31T22:36:43.845Z,8.39
2017-10-31T22:39:23.012Z,8.38
2017-10-31T22:41:58.286Z,8.39
2017-10-31T22:44:29.032Z,8.44
2017-10-31T22:47:00.723Z,8.37
2017-10-31T22:49:31.680Z,8.40
2017-10-31T22:52:05.574Z,8.36
2017-10-31T22:54:36.430Z,8.34
2017-10-31T22:57:11.469Z,8.35
2017-10-31T22:59:42.266Z,8.39
2017-10-31T23:02:16.345Z,8.39
2017-10-31T23:04:50.015Z,8.36
2017-10-31T23:07:27.154Z,8.35
2017-10-31T23:09:57.993Z,8.32
2017-10-31T23:12:29.058Z,8.30
2017-10-31T23:14:59.799Z,8.35
2017-10-31T23:17:31.228Z,8.31
2017-10-31T23:20:02.891Z,8.31
2017-10-31T23:22:36.638Z,8.35
2017-10-31T23:25:10.640Z,8.37
2017-10-31T23:27:41.880Z,8.32
2017-10-31T23:30:12.964Z,8.29
2017-10-31T23:32:43.654Z,8.29
2017-10-31T23:35:15.131Z,8.30
2017-10-31T23:37:47.440Z,8.32
2017-10-31T23:40:19.949Z,8.29
2017-10-31T23:42:55.075Z,8.27
2017-10-31T23:45:25.958Z,8.26
2017-10-31T23:47:57.086Z,8.30
2017-10-31T23:50:29.490Z,8.28
2017-10-31T23:53:00.402Z,8.25
2017-10-31T23:55:31.578Z,8.23
2017-10-31T23:58:02.390Z,8.23
